createdAt,value
2023-04-21T00:01:59.306Z,11.39
2023-04-21T00:04:26.751Z,11.37
2023-04-21T00:06:54.616Z,11.35
2023-04-21T00:09:22.381Z,11.23
2023-04-21T00:11:49.372Z,11.23
2023-04-21T00:14:16.355Z,11.09
2023-04-21T00:16:43.335Z,11.14
2023-04-21T00:19:10.586Z,11.25
2023-04-21T00:21:37.717Z,11.15
2023-04-21T00:24:05.462Z,11.03
2023-04-21T00:26:32.452Z,11.00
2023-04-21T00:28:59.438Z,11.03
2023-04-21T00:31:26.483Z,10.92
2023-04-21T00:33:54.043Z,10.98
2023-04-21T00:36:21.207Z,10.98
2023-04-21T00:38:48.175Z,10.89
2023-04-21T00:41:15.168Z,10.84
2023-04-21T00:44:05.465Z,10.74
2023-04-21T00:46:34.216Z,10.78
2023-04-21T00:49:06.282Z,10.79
2023-04-21T00:51:35.386Z,10.89
2023-04-21T00:54:07.677Z,10.58
2023-04-21T00:56:36.709Z,10.61
2023-04-21T00:59:04.310Z,10.68
2023-04-21T01:01:36.579Z,10.55
2023-04-21T01:04:05.358Z,10.48
2023-04-21T01:06:36.715Z,10.78
2023-04-21T01:09:06.769Z,10.71
2023-04-21T01:11:34.467Z,10.65
2023-04-21T01:14:01.505Z,10.55
2023-04-21T01:16:29.677Z,10.54
2023-04-21T01:18:57.193Z,10.62
2023-04-21T01:21:24.193Z,10.34
2023-04-21T01:23:51.557Z,10.22
2023-04-21T01:26:21.691Z,10.13
2023-04-21T01:28:49.093Z,10.47
2023-04-21T01:31:17.663Z,10.27
2023-04-21T01:33:45.679Z,10.13
2023-04-21T01:36:12.935Z,10.16
2023-04-21T01:38:43.148Z,10.15
2023-04-21T01:41:10.876Z,10.21
2023-04-21T01:43:38.603Z,10.10
2023-04-21T01:46:07.269Z,10.03
2023-04-21T01:48:34.453Z,10.02
2023-04-21T01:51:01.438Z,10.06
2023-04-21T01:53:28.492Z,10.01
2023-04-21T01:55:56.536Z,9.98
2023-04-21T01:58:23.540Z,10.04
2023-04-21T02:00:50.563Z,9.89
2023-04-21T02:03:17.726Z,9.86
2023-04-21T02:05:44.916Z,9.81
2023-04-21T02:08:11.950Z,9.88
2023-04-21T02:10:38.993Z,9.91
2023-04-21T02:13:06.053Z,9.81
2023-04-21T02:15:33.683Z,9.67
2023-04-21T02:18:00.779Z,9.69
2023-04-21T02:20:27.978Z,9.80
2023-04-21T02:22:54.949Z,9.81
2023-04-21T02:25:21.949Z,9.79
2023-04-21T02:27:48.937Z,9.62
2023-04-21T02:30:16.450Z,9.68
2023-04-21T02:32:43.713Z,9.60
2023-04-21T02:35:10.989Z,9.65
2023-04-21T02:37:38.061Z,9.51
2023-04-21T02:40:06.669Z,9.59
2023-04-21T02:42:34.944Z,9.54
2023-04-21T02:45:02.107Z,9.57
2023-04-21T02:47:29.212Z,9.55
2023-04-21T02:49:56.248Z,9.52
2023-04-21T02:52:23.278Z,9.52
2023-04-21T02:54:50.504Z,9.64
2023-04-21T02:57:17.498Z,9.45
2023-04-21T02:59:44.532Z,9.36
2023-04-21T03:02:11.634Z,9.23
2023-04-21T03:04:39.428Z,9.27
2023-04-21T03:07:11.369Z,9.19
2023-04-21T03:09:38.380Z,9.23
2023-04-21T03:12:05.517Z,9.18
2023-04-21T03:14:32.530Z,9.15
2023-04-21T03:16:59.615Z,9.22
2023-04-21T03:19:26.682Z,9.31
2023-04-21T03:21:53.637Z,9.40
2023-04-21T03:24:21.496Z,9.34
2023-04-21T03:26:48.477Z,9.21
2023-04-21T03:29:15.586Z,9.10
2023-04-21T03:31:42.744Z,9.31
2023-04-21T03:34:09.763Z,9.31
2023-04-21T03:36:36.759Z,9.30
2023-04-21T03:39:18.824Z,9.20
2023-04-21T03:41:47.140Z,9.24
2023-04-21T03:44:14.126Z,9.37
2023-04-21T03:46:41.111Z,9.36
2023-04-21T03:49:08.140Z,9.32
2023-04-21T03:51:35.070Z,9.62
2023-04-21T03:54:02.074Z,9.45
2023-04-21T03:56:29.064Z,9.89
2023-04-21T03:58:56.146Z,10.89
2023-04-21T04:01:23.186Z,11.96
2023-04-21T04:03:50.960Z,12.56
2023-04-21T04:06:18.277Z,13.50
2023-04-21T04:08:45.278Z,13.80
2023-04-21T04:11:12.250Z,14.68
2023-04-21T04:13:39.354Z,15.07
2023-04-21T04:16:07.073Z,15.75
2023-04-21T04:18:34.107Z,16.74
2023-04-21T04:21:07.547Z,18.01
2023-04-21T04:23:35.504Z,18.68
2023-04-21T04:26:05.615Z,19.41
2023-04-21T04:28:33.702Z,20.30
2023-04-21T04:31:01.111Z,21.71
2023-04-21T04:33:28.081Z,22.20
2023-04-21T04:35:55.098Z,22.71
2023-04-21T04:38:23.139Z,23.72
2023-04-21T04:40:58.897Z,23.99
2023-04-21T04:43:25.857Z,24.62
2023-04-21T04:45:53.398Z,23.42
2023-04-21T04:48:20.476Z,25.02
2023-04-21T04:50:47.612Z,24.25
2023-04-21T04:53:14.696Z,24.49
2023-04-21T04:55:41.682Z,24.80
2023-04-21T04:58:08.677Z,25.40
2023-04-21T05:00:37.099Z,25.45
2023-04-21T05:03:04.434Z,25.79
2023-04-21T05:05:31.645Z,27.57
2023-04-21T05:07:58.703Z,26.53
2023-04-21T05:10:25.814Z,28.26
2023-04-21T05:12:52.831Z,27.21
2023-04-21T05:15:19.900Z,27.52
2023-04-21T05:17:46.899Z,26.98
2023-04-21T05:20:15.021Z,27.43
2023-04-21T05:22:42.148Z,27.56
2023-04-21T05:25:15.877Z,27.79
2023-04-21T05:27:43.625Z,28.41
2023-04-21T05:30:11.317Z,28.33
2023-04-21T05:32:39.295Z,29.93
2023-04-21T05:35:07.001Z,31.40
2023-04-21T05:37:34.044Z,30.84
2023-04-21T05:40:01.113Z,30.99
2023-04-21T05:42:28.282Z,32.03
2023-04-21T05:44:55.345Z,32.07
2023-04-21T05:47:22.456Z,32.75
2023-04-21T05:49:53.779Z,32.29
2023-04-21T05:52:23.860Z,33.25
2023-04-21T05:54:50.966Z,34.01
2023-04-21T05:57:18.026Z,34.25
2023-04-21T05:59:45.140Z,33.73
2023-04-21T06:02:12.563Z,33.80
2023-04-21T06:04:39.933Z,32.50
2023-04-21T06:07:09.146Z,33.96
2023-04-21T06:09:36.839Z,34.00
2023-04-21T06:12:04.384Z,33.03
2023-04-21T06:14:31.511Z,34.14
2023-04-21T06:16:58.978Z,34.13
2023-04-21T06:19:26.083Z,32.36
2023-04-21T06:21:53.143Z,33.20
2023-04-21T06:24:25.228Z,33.17
2023-04-21T06:26:53.485Z,33.91
2023-04-21T06:29:21.078Z,33.52
2023-04-21T06:31:48.379Z,33.97
2023-04-21T06:34:15.972Z,35.32
2023-04-21T06:36:43.005Z,35.03
2023-04-21T06:39:09.991Z,34.83
2023-04-21T06:41:37.119Z,35.70
2023-04-21T06:44:04.179Z,36.50
2023-04-21T06:46:31.415Z,36.49
2023-04-21T06:48:58.671Z,36.98
2023-04-21T06:51:25.679Z,34.67
2023-04-21T06:53:52.679Z,35.81
2023-04-21T06:56:19.642Z,37.98
2023-04-21T06:58:47.102Z,37.55
2023-04-21T07:01:14.135Z,39.18
2023-04-21T07:03:41.450Z,38.56
2023-04-21T07:06:08.796Z,39.16
2023-04-21T07:08:35.919Z,36.18
2023-04-21T07:11:03.122Z,36.23
2023-04-21T07:13:30.433Z,36.36
2023-04-21T07:15:57.558Z,35.86
2023-04-21T07:18:24.570Z,32.73
2023-04-21T07:20:51.652Z,33.45
2023-04-21T07:23:18.982Z,32.58
2023-04-21T07:25:46.024Z,31.94
2023-04-21T07:28:15.176Z,30.71
2023-04-21T07:30:42.321Z,31.39
2023-04-21T07:33:09.567Z,31.91
2023-04-21T07:35:36.635Z,32.28
2023-04-21T07:38:03.836Z,33.32
2023-04-21T07:40:31.264Z,33.23
2023-04-21T07:42:58.255Z,32.95
2023-04-21T07:45:26.471Z,32.60
2023-04-21T07:47:53.592Z,32.60
2023-04-21T07:50:20.623Z,32.77
2023-04-21T07:52:48.210Z,32.94
2023-04-21T07:55:15.683Z,31.97
2023-04-21T07:57:42.762Z,31.26
2023-04-21T08:00:10.899Z,30.88
2023-04-21T08:02:38.015Z,29.64
2023-04-21T08:05:05.749Z,28.84
2023-04-21T08:07:32.898Z,29.54
2023-04-21T08:10:00.321Z,30.01
2023-04-21T08:12:27.543Z,28.92
2023-04-21T08:14:57.317Z,28.12
2023-04-21T08:17:24.434Z,27.80
2023-04-21T08:19:52.158Z,29.77
2023-04-21T08:22:19.195Z,29.64
2023-04-21T08:24:46.214Z,29.78
2023-04-21T08:27:13.325Z,28.51
2023-04-21T08:29:40.365Z,28.29
2023-04-21T08:32:07.652Z,28.99
2023-04-21T08:34:35.075Z,26.60
2023-04-21T08:37:02.170Z,27.72
2023-04-21T08:39:30.568Z,26.86
2023-04-21T08:41:59.172Z,25.11
2023-04-21T08:44:26.704Z,25.24
2023-04-21T08:46:55.980Z,25.91
2023-04-21T08:49:24.368Z,26.54
2023-04-21T08:51:51.423Z,24.56
2023-04-21T08:54:18.506Z,24.97
2023-04-21T08:56:45.564Z,25.04
2023-04-21T08:59:12.537Z,25.96
2023-04-21T09:02:12.105Z,25.02
2023-04-21T09:04:45.141Z,24.28
2023-04-21T09:07:29.770Z,23.73
2023-04-21T09:09:58.231Z,24.23
2023-04-21T09:12:25.312Z,24.05
2023-04-21T09:14:52.358Z,24.84
2023-04-21T09:17:27.440Z,24.50
2023-04-21T09:19:54.473Z,24.10
2023-04-21T09:22:26.645Z,23.68
2023-04-21T09:25:02.702Z,23.65
2023-04-21T09:27:29.797Z,23.20
2023-04-21T09:30:04.598Z,23.73
2023-04-21T09:32:38.129Z,23.17
2023-04-21T09:35:09.764Z,23.68
2023-04-21T09:37:38.143Z,23.42
2023-04-21T09:40:06.608Z,24.13
2023-04-21T09:42:37.845Z,23.85
2023-04-21T09:45:28.857Z,23.86
2023-04-21T09:48:00.793Z,23.58
2023-04-21T09:53:04.066Z,25.26
2023-04-21T09:55:33.432Z,24.20
2023-04-21T09:58:02.019Z,24.42
2023-04-21T10:00:31.123Z,24.99
2023-04-21T10:03:00.910Z,24.84
2023-04-21T10:05:29.439Z,24.85
2023-04-21T10:07:57.954Z,23.65
2023-04-21T10:10:34.819Z,22.63
2023-04-21T10:13:02.793Z,22.27
2023-04-21T10:15:41.527Z,22.34
2023-04-21T10:18:29.320Z,22.66
2023-04-21T10:21:04.975Z,22.46
2023-04-21T10:23:42.035Z,23.65
2023-04-21T10:26:32.576Z,24.31
2023-04-21T10:29:06.047Z,23.14
2023-04-21T10:31:36.619Z,23.05
2023-04-21T10:34:09.245Z,23.48
2023-04-21T10:36:44.117Z,22.94
2023-04-21T10:39:16.459Z,23.11
2023-04-21T10:41:46.340Z,22.95
2023-04-21T10:44:16.056Z,22.40
2023-04-21T10:46:52.232Z,22.34
2023-04-21T10:49:30.139Z,21.99
2023-04-21T10:52:00.302Z,22.51
2023-04-21T10:54:52.573Z,22.05
2023-04-21T10:57:20.708Z,22.83
2023-04-21T10:59:49.644Z,23.10
2023-04-21T11:02:19.342Z,22.51
2023-04-21T11:04:52.664Z,22.48
2023-04-21T11:07:24.594Z,22.95
2023-04-21T11:10:07.401Z,23.55
2023-04-21T11:12:41.450Z,22.90
2023-04-21T11:15:11.348Z,22.03
2023-04-21T11:17:39.920Z,21.76
2023-04-21T11:20:08.528Z,22.20
2023-04-21T11:22:37.805Z,22.15
2023-04-21T11:25:05.601Z,22.30
2023-04-21T11:27:32.700Z,21.77
2023-04-21T11:30:03.480Z,21.38
2023-04-21T11:32:31.320Z,21.34
2023-04-21T11:34:58.445Z,20.95
2023-04-21T11:37:27.932Z,20.69
2023-04-21T11:40:00.416Z,20.91
2023-04-21T11:42:28.565Z,20.92
2023-04-21T11:44:56.735Z,20.33
2023-04-21T11:47:27.174Z,20.38
2023-04-21T11:50:01.017Z,20.66
2023-04-21T11:52:33.194Z,20.75
2023-04-21T11:55:06.234Z,20.86
2023-04-21T11:57:34.259Z,20.37
2023-04-21T12:00:07.904Z,20.12
2023-04-21T12:02:35.148Z,19.98
2023-04-21T12:05:13.455Z,20.11
2023-04-21T12:07:52.026Z,20.40
2023-04-21T12:10:21.214Z,20.47
2023-04-21T12:12:49.084Z,20.75
2023-04-21T12:15:23.094Z,20.48
2023-04-21T12:17:55.450Z,20.03
2023-04-21T12:20:26.498Z,20.44
2023-04-21T12:22:53.572Z,20.36
2023-04-21T12:25:20.716Z,20.09
2023-04-21T12:27:58.452Z,20.11
2023-04-21T12:30:25.620Z,19.91
2023-04-21T12:32:54.456Z,20.14
2023-04-21T12:35:22.782Z,20.08
2023-04-21T12:37:49.770Z,20.29
2023-04-21T12:40:17.051Z,20.21
2023-04-21T12:42:43.980Z,20.53
2023-04-21T12:45:11.632Z,20.28
2023-04-21T12:47:39.400Z,20.01
2023-04-21T12:50:07.593Z,20.25
2023-04-21T12:52:34.815Z,20.49
2023-04-21T12:55:01.904Z,20.84
2023-04-21T12:57:29.272Z,20.77
2023-04-21T12:59:56.246Z,20.49
2023-04-21T13:02:23.429Z,20.06
2023-04-21T13:04:50.703Z,20.09
2023-04-21T13:07:21.394Z,20.09
2023-04-21T13:09:48.538Z,20.38
2023-04-21T13:12:15.659Z,20.54
2023-04-21T13:14:42.850Z,20.48
2023-04-21T13:17:10.192Z,20.84
2023-04-21T13:19:37.405Z,20.93
2023-04-21T13:22:04.517Z,21.09
2023-04-21T13:24:31.658Z,20.84
2023-04-21T13:26:59.543Z,20.90
2023-04-21T13:29:30.378Z,20.59
2023-04-21T13:31:57.509Z,20.51
2023-04-21T13:34:24.747Z,20.76
2023-04-21T13:36:51.911Z,20.83
2023-04-21T13:39:19.013Z,20.73
2023-04-21T13:41:46.112Z,20.68
2023-04-21T13:44:13.172Z,20.52
2023-04-21T13:46:40.378Z,20.44
2023-04-21T13:49:07.679Z,20.64
2023-04-21T13:51:35.576Z,20.41
2023-04-21T13:54:02.784Z,20.34
2023-04-21T13:56:29.891Z,20.64
2023-04-21T13:58:57.126Z,20.32
2023-04-21T14:01:24.324Z,20.18
2023-04-21T14:03:51.837Z,20.25
2023-04-21T14:06:19.453Z,20.02
2023-04-21T14:08:46.591Z,20.36
2023-04-21T14:11:13.766Z,20.57
2023-04-21T14:13:48.055Z,20.72
2023-04-21T14:16:26.898Z,20.54
2023-04-21T14:18:53.990Z,20.67
2023-04-21T14:21:21.055Z,20.72
2023-04-21T14:23:48.277Z,20.33
2023-04-21T14:26:15.393Z,20.47
2023-04-21T14:28:42.606Z,20.31
2023-04-21T14:31:09.693Z,20.48
2023-04-21T14:33:36.926Z,20.37
2023-04-21T14:36:04.136Z,20.62
2023-04-21T14:38:31.220Z,20.79
2023-04-21T14:40:58.214Z,20.76
2023-04-21T14:43:25.295Z,20.81
2023-04-21T14:45:53.155Z,20.50
2023-04-21T14:48:21.353Z,20.46
2023-04-21T14:50:48.514Z,20.59
2023-04-21T14:53:15.704Z,20.53
2023-04-21T14:55:42.707Z,20.42
2023-04-21T14:58:09.738Z,20.53
2023-04-21T15:00:36.763Z,20.77
2023-04-21T15:03:04.029Z,20.84
2023-04-21T15:05:31.236Z,20.78
2023-04-21T15:07:58.229Z,21.09
2023-04-21T15:10:25.350Z,21.13
2023-04-21T15:12:52.494Z,21.14
2023-04-21T15:15:19.746Z,20.76
2023-04-21T15:17:46.789Z,20.57
2023-04-21T15:20:13.874Z,20.62
2023-04-21T15:22:41.507Z,20.33
2023-04-21T15:25:09.166Z,20.29
2023-04-21T15:27:36.955Z,20.39
2023-04-21T15:30:05.132Z,20.01
2023-04-21T15:32:32.239Z,19.93
2023-04-21T15:34:59.278Z,19.94
2023-04-21T15:37:26.332Z,19.78
2023-04-21T15:39:53.463Z,19.62
2023-04-21T15:42:20.722Z,19.75
2023-04-21T15:44:47.841Z,19.70
2023-04-21T15:47:17.034Z,19.59
2023-04-21T15:49:44.178Z,19.62
2023-04-21T15:52:11.328Z,19.60
2023-04-21T15:54:38.838Z,19.56
2023-04-21T15:57:06.366Z,19.52
2023-04-21T15:59:33.375Z,19.57
2023-04-21T16:02:00.565Z,19.36
2023-04-21T16:04:28.383Z,19.19
2023-04-21T16:06:56.208Z,19.13
2023-04-21T16:09:23.748Z,19.26
2023-04-21T16:11:51.441Z,19.20
2023-04-21T16:14:18.980Z,19.26
2023-04-21T16:16:46.198Z,18.93
2023-04-21T16:19:13.418Z,19.09
2023-04-21T16:21:40.843Z,18.82
2023-04-21T16:24:08.826Z,19.01
2023-04-21T16:26:36.734Z,18.90
2023-04-21T16:29:03.982Z,18.84
2023-04-21T16:31:31.556Z,18.82
2023-04-21T16:34:00.345Z,18.75
2023-04-21T16:36:28.474Z,18.67
2023-04-21T16:38:56.256Z,18.66
2023-04-21T16:41:23.653Z,18.61
2023-04-21T16:43:50.860Z,18.60
2023-04-21T16:46:18.412Z,18.61
2023-04-21T16:48:46.034Z,18.61
2023-04-21T16:51:13.164Z,18.48
2023-04-21T16:53:42.096Z,18.35
2023-04-21T16:56:09.772Z,18.49
2023-04-21T16:58:37.744Z,18.49
2023-04-21T17:01:07.521Z,18.34
2023-04-21T17:03:35.007Z,18.25
2023-04-21T17:06:04.647Z,18.13
2023-04-21T17:08:31.723Z,17.97
2023-04-21T17:11:00.009Z,18.04
2023-04-21T17:13:27.074Z,17.92
2023-04-21T17:15:54.227Z,17.81
2023-04-21T17:18:21.414Z,17.77
2023-04-21T17:20:48.545Z,17.83
2023-04-21T17:23:15.589Z,17.83
2023-04-21T17:25:42.739Z,17.71
2023-04-21T17:28:09.836Z,17.71
2023-04-21T17:30:36.970Z,17.67
2023-04-21T17:33:15.249Z,17.55
2023-04-21T17:35:59.920Z,17.51
2023-04-21T17:38:29.295Z,17.41
2023-04-21T17:40:56.422Z,17.31
2023-04-21T17:43:23.529Z,17.34
2023-04-21T17:45:51.637Z,17.27
2023-04-21T17:48:19.137Z,17.16
2023-04-21T17:50:46.220Z,17.27
2023-04-21T17:53:13.205Z,17.19
2023-04-21T17:55:40.396Z,17.08
2023-04-21T17:58:10.037Z,17.02
2023-04-21T18:00:38.711Z,17.10
2023-04-21T18:03:05.982Z,16.93
2023-04-21T18:05:33.781Z,17.07
2023-04-21T18:08:00.937Z,16.82
2023-04-21T18:10:29.807Z,16.77
2023-04-21T18:12:57.837Z,16.74
2023-04-21T18:15:25.148Z,16.70
2023-04-21T18:17:53.300Z,16.68
2023-04-21T18:20:20.761Z,16.56
2023-04-21T18:22:49.092Z,16.52
2023-04-21T18:25:20.156Z,16.54
2023-04-21T18:27:51.513Z,16.55
2023-04-21T18:30:18.564Z,16.39
2023-04-21T18:32:45.717Z,16.38
2023-04-21T18:35:12.776Z,16.35
2023-04-21T18:37:39.765Z,16.23
2023-04-21T18:40:07.759Z,16.16
2023-04-21T18:42:34.833Z,16.17
2023-04-21T18:45:04.257Z,16.22
2023-04-21T18:47:31.928Z,16.19
2023-04-21T18:49:59.014Z,16.08
2023-04-21T18:52:26.077Z,16.08
2023-04-21T18:54:53.082Z,16.08
2023-04-21T18:57:20.091Z,16.06
2023-04-21T18:59:47.156Z,15.98
2023-04-21T19:02:14.422Z,15.90
2023-04-21T19:04:43.850Z,15.86
2023-04-21T19:07:11.528Z,15.71
2023-04-21T19:09:38.721Z,15.79
2023-04-21T19:12:05.892Z,15.74
2023-04-21T19:14:42.452Z,15.65
2023-04-21T19:17:13.141Z,15.63
2023-04-21T19:19:40.857Z,15.57
2023-04-21T19:22:07.989Z,15.52
2023-04-21T19:24:35.457Z,15.36
2023-04-21T19:27:03.782Z,15.40
2023-04-21T19:29:31.804Z,15.24
2023-04-21T19:31:59.432Z,15.20
2023-04-21T19:34:26.918Z,15.22
2023-04-21T19:36:53.993Z,15.08
2023-04-21T19:39:21.040Z,15.02
2023-04-21T19:41:48.065Z,14.99
2023-04-21T19:44:15.047Z,15.03
2023-04-21T19:46:43.129Z,15.11
2023-04-21T19:49:14.140Z,14.97
2023-04-21T19:51:41.473Z,14.75
2023-04-21T19:54:12.157Z,14.63
2023-04-21T19:56:40.577Z,14.49
2023-04-21T19:59:07.884Z,14.44
2023-04-21T20:01:35.100Z,14.43
2023-04-21T20:04:03.750Z,14.36
2023-04-21T20:06:32.094Z,14.35
2023-04-21T20:08:59.124Z,14.39
2023-04-21T20:11:28.953Z,14.55
2023-04-21T20:13:56.329Z,14.50
2023-04-21T20:16:24.074Z,14.67
2023-04-21T20:18:51.129Z,14.71
2023-04-21T20:21:18.246Z,14.65
2023-04-21T20:23:45.300Z,14.51
2023-04-21T20:26:13.280Z,14.53
2023-04-21T20:28:40.307Z,14.47
2023-04-21T20:31:07.580Z,14.68
2023-04-21T20:33:35.030Z,14.60
2023-04-21T20:36:07.193Z,14.62
2023-04-21T20:38:35.433Z,14.53
2023-04-21T20:41:03.355Z,14.51
2023-04-21T20:43:33.341Z,14.45
2023-04-21T20:46:04.316Z,14.44
2023-04-21T20:48:31.468Z,14.39
2023-04-21T20:50:58.504Z,14.43
2023-04-21T20:53:26.181Z,14.16
2023-04-21T20:55:53.265Z,14.18
2023-04-21T20:58:20.390Z,14.17
2023-04-21T21:00:47.453Z,14.07
2023-04-21T21:03:14.940Z,14.07
2023-04-21T21:05:42.223Z,13.77
2023-04-21T21:08:09.449Z,13.95
2023-04-21T21:10:36.532Z,13.92
2023-04-21T21:13:03.672Z,13.84
2023-04-21T21:15:30.955Z,13.82
2023-04-21T21:17:58.439Z,13.90
2023-04-21T21:20:25.832Z,13.88
2023-04-21T21:22:52.888Z,13.73
2023-04-21T21:25:20.031Z,13.54
2023-04-21T21:27:47.300Z,13.57
2023-04-21T21:30:14.645Z,13.64
2023-04-21T21:32:41.947Z,13.67
2023-04-21T21:35:10.653Z,13.68
2023-04-21T21:37:38.297Z,13.74
2023-04-21T21:40:06.965Z,13.77
2023-04-21T21:42:34.151Z,13.68
2023-04-21T21:45:01.320Z,13.59
2023-04-21T21:47:28.698Z,13.47
2023-04-21T21:49:57.848Z,13.52
2023-04-21T21:52:25.312Z,13.44
2023-04-21T21:54:52.709Z,13.18
2023-04-21T21:57:19.709Z,13.21
2023-04-21T21:59:47.127Z,13.30
2023-04-21T22:02:14.991Z,13.31
2023-04-21T22:04:42.994Z,13.25
2023-04-21T22:07:10.066Z,13.11
2023-04-21T22:09:38.545Z,13.08
2023-04-21T22:12:07.325Z,12.98
2023-04-21T22:14:34.633Z,12.91
2023-04-21T22:17:02.956Z,12.95
2023-04-21T22:19:31.156Z,13.03
2023-04-21T22:21:58.419Z,12.80
2023-04-21T22:24:25.830Z,12.95
2023-04-21T22:26:53.285Z,12.74
2023-04-21T22:29:20.293Z,12.50
2023-04-21T22:31:48.131Z,12.67
2023-04-21T22:34:16.785Z,12.57
2023-04-21T22:36:44.116Z,12.68
2023-04-21T22:39:12.773Z,12.40
2023-04-21T22:41:39.828Z,12.37
2023-04-21T22:44:06.826Z,12.31
2023-04-21T22:46:33.982Z,12.16
2023-04-21T22:49:03.183Z,12.17
2023-04-21T22:51:32.456Z,12.03
2023-04-21T22:54:00.429Z,12.14
2023-04-21T22:56:28.572Z,12.13
2023-04-21T22:58:55.631Z,12.12
2023-04-21T23:01:23.225Z,12.11
2023-04-21T23:03:50.774Z,12.04
2023-04-21T23:06:17.862Z,12.12
2023-04-21T23:08:44.922Z,12.13
2023-04-21T23:11:12.115Z,12.00
2023-04-21T23:13:39.986Z,12.03
2023-04-21T23:16:07.200Z,12.05
2023-04-21T23:18:34.235Z,11.86
2023-04-21T23:21:01.492Z,12.02
2023-04-21T23:23:28.529Z,11.89
2023-04-21T23:25:55.672Z,11.73
2023-04-21T23:28:23.888Z,11.64
2023-04-21T23:30:50.904Z,11.67
2023-04-21T23:33:17.990Z,11.85
2023-04-21T23:35:45.137Z,11.76
2023-04-21T23:38:12.191Z,11.82
2023-04-21T23:40:39.252Z,11.69
2023-04-21T23:43:07.090Z,11.62
2023-04-21T23:45:34.191Z,11.70
2023-04-21T23:48:01.446Z,11.78
2023-04-21T23:50:28.772Z,11.71
2023-04-21T23:52:56.052Z,11.79
2023-04-21T23:55:23.160Z,11.52
2023-04-21T23:57:50.178Z,11.36
